createdAt,value
2017-10-18T00:00:05.457Z,0
2017-10-18T00:00:45.787Z,0
2017-10-18T00:01:26.217Z,0
2017-10-18T00:02:06.929Z,0
2017-10-18T00:02:47.271Z,0
2017-10-18T00:03:27.701Z,0
2017-10-18T00:04:08.204Z,0
2017-10-18T00:04:48.582Z,0
2017-10-18T00:05:28.997Z,0
2017-10-18T00:06:09.702Z,0
2017-10-18T00:06:49.826Z,0
2017-10-18T00:07:30.240Z,0
2017-10-18T00:08:10.804Z,0
2017-10-18T00:08:51.110Z,0
2017-10-18T00:09:31.698Z,0
2017-10-18T00:10:12.080Z,0
2017-10-18T00:10:52.544Z,0
2017-10-18T00:11:32.955Z,0
2017-10-18T00:12:13.430Z,0
2017-10-18T00:12:53.889Z,0
2017-10-18T00:13:34.306Z,0
2017-10-18T00:14:14.754Z,0
2017-10-18T00:14:55.149Z,0
2017-10-18T00:15:35.588Z,0
2017-10-18T00:16:16.008Z,0
2017-10-18T00:16:56.547Z,0
2017-10-18T00:17:36.842Z,0
2017-10-18T00:18:17.458Z,0
2017-10-18T00:18:57.913Z,0
2017-10-18T00:19:38.252Z,0
2017-10-18T00:20:18.777Z,0
2017-10-18T00:20:59.147Z,0
2017-10-18T00:21:39.528Z,0
2017-10-18T00:22:20.052Z,0
2017-10-18T00:23:00.570Z,0
2017-10-18T00:23:41.033Z,0
2017-10-18T00:24:21.630Z,0
2017-10-18T00:25:02.061Z,0
2017-10-18T00:25:42.423Z,0
2017-10-18T00:26:22.906Z,0
2017-10-18T00:27:03.250Z,0
2017-10-18T00:27:43.635Z,0
2017-10-18T00:28:24.131Z,0
2017-10-18T00:29:04.481Z,0
2017-10-18T00:29:45.057Z,0
2017-10-18T00:30:25.778Z,0
2017-10-18T00:31:06.166Z,0
2017-10-18T00:31:46.725Z,0
2017-10-18T00:32:27.172Z,0
2017-10-18T00:33:07.537Z,0
2017-10-18T00:33:48.056Z,0
2017-10-18T00:34:28.411Z,0
2017-10-18T00:35:08.949Z,0
2017-10-18T00:35:49.310Z,0
2017-10-18T00:36:29.747Z,0
2017-10-18T00:37:10.183Z,0
2017-10-18T00:37:50.878Z,0
2017-10-18T00:38:31.122Z,0
2017-10-18T00:39:11.755Z,0
2017-10-18T00:39:52.234Z,0
2017-10-18T00:40:32.716Z,0
2017-10-18T00:41:13.129Z,0
2017-10-18T00:41:53.749Z,0
2017-10-18T00:42:34.405Z,0
2017-10-18T00:43:14.927Z,0
2017-10-18T00:43:55.226Z,0
2017-10-18T00:44:36.755Z,0
2017-10-18T00:45:17.115Z,0
2017-10-18T00:45:57.754Z,0
2017-10-18T00:46:38.514Z,0
2017-10-18T00:47:18.857Z,0
2017-10-18T00:47:59.444Z,0
2017-10-18T00:48:40.010Z,0
2017-10-18T00:49:20.435Z,0
2017-10-18T00:50:01.281Z,0
2017-10-18T00:50:41.740Z,0
2017-10-18T00:51:22.146Z,0
2017-10-18T00:52:02.626Z,0
2017-10-18T00:52:43.087Z,0
2017-10-18T00:53:23.546Z,0
2017-10-18T00:54:04.310Z,0
2017-10-18T00:54:44.719Z,0
2017-10-18T00:55:25.101Z,0
2017-10-18T00:56:05.513Z,0
2017-10-18T00:56:45.895Z,0
2017-10-18T00:57:26.557Z,0
2017-10-18T00:58:07.011Z,0
2017-10-18T00:58:47.933Z,0
2017-10-18T00:59:28.498Z,0
2017-10-18T01:00:09.025Z,0
2017-10-18T01:00:49.549Z,0
2017-10-18T01:01:30.319Z,0
2017-10-18T01:02:10.663Z,0
2017-10-18T01:02:51.481Z,0
2017-10-18T01:03:32.092Z,0
2017-10-18T01:04:12.879Z,0
2017-10-18T01:04:53.582Z,0
2017-10-18T01:05:34.196Z,0
2017-10-18T01:06:14.913Z,0
2017-10-18T01:06:55.422Z,0
2017-10-18T01:07:35.930Z,0
2017-10-18T01:08:16.531Z,0
2017-10-18T01:08:56.930Z,0
2017-10-18T01:09:37.513Z,0
2017-10-18T01:10:17.984Z,0
2017-10-18T01:10:58.594Z,0
2017-10-18T01:11:39.663Z,0
2017-10-18T01:12:20.188Z,0
2017-10-18T01:13:00.654Z,0
2017-10-18T01:13:41.624Z,0
2017-10-18T01:14:23.025Z,0
2017-10-18T01:15:03.524Z,0
2017-10-18T01:15:44.058Z,0
2017-10-18T01:18:34.646Z,0
2017-10-18T01:19:26.675Z,0
2017-10-18T01:20:19.629Z,0
2017-10-18T01:21:12.511Z,0
2017-10-18T01:22:05.051Z,0
2017-10-18T01:22:58.094Z,0
2017-10-18T01:23:50.313Z,0
2017-10-18T01:24:43.355Z,0
2017-10-18T01:25:35.431Z,0
2017-10-18T01:26:27.874Z,0
2017-10-18T01:27:20.039Z,0
2017-10-18T01:28:13.069Z,0
2017-10-18T01:29:05.395Z,0
2017-10-18T01:29:58.547Z,0
2017-10-18T01:30:51.258Z,0
2017-10-18T01:31:43.917Z,0
2017-10-18T01:32:36.876Z,0
2017-10-18T01:33:29.818Z,0
2017-10-18T01:34:21.912Z,0
2017-10-18T01:35:15.472Z,0
2017-10-18T01:36:07.589Z,0
2017-10-18T01:36:59.468Z,0
2017-10-18T01:37:52.192Z,0
2017-10-18T01:38:45.830Z,0
2017-10-18T01:39:37.963Z,0
2017-10-18T01:40:30.322Z,0
2017-10-18T01:41:22.502Z,0
2017-10-18T01:42:14.350Z,0
2017-10-18T01:43:06.703Z,0
2017-10-18T01:43:59.969Z,0
2017-10-18T01:44:53.007Z,0
2017-10-18T01:45:45.031Z,0
2017-10-18T01:46:36.740Z,0
2017-10-18T01:47:29.519Z,0
2017-10-18T01:48:21.952Z,0
2017-10-18T01:49:15.520Z,0
2017-10-18T01:50:08.478Z,0
2017-10-18T01:51:00.316Z,0
2017-10-18T01:51:48.064Z,0
2017-10-18T01:52:28.892Z,0
2017-10-18T01:53:09.501Z,0
2017-10-18T01:53:49.896Z,0
2017-10-18T01:54:31.623Z,0
2017-10-18T01:55:12.654Z,0
2017-10-18T01:55:53.763Z,0
2017-10-18T01:56:34.816Z,0
2017-10-18T01:57:15.090Z,0
2017-10-18T01:57:56.237Z,0
2017-10-18T01:58:37.586Z,0
2017-10-18T02:00:51.671Z,0
2017-10-18T02:01:32.093Z,0
2017-10-18T02:02:12.479Z,0
2017-10-18T02:02:52.900Z,0
2017-10-18T02:03:33.336Z,0
2017-10-18T02:04:13.772Z,0
2017-10-18T02:04:54.155Z,0
2017-10-18T02:05:34.576Z,0
2017-10-18T02:09:55.639Z,0
2017-10-18T02:10:35.945Z,0
2017-10-18T02:11:16.322Z,0
2017-10-18T02:11:56.742Z,0
2017-10-18T02:12:37.149Z,0
2017-10-18T02:13:17.605Z,0
2017-10-18T02:13:57.944Z,0
2017-10-18T02:14:38.341Z,0
2017-10-18T02:15:18.768Z,0
2017-10-18T02:15:59.127Z,0
2017-10-18T02:16:39.552Z,0
2017-10-18T02:17:19.954Z,0
2017-10-18T02:18:00.334Z,0
2017-10-18T02:18:40.730Z,0
2017-10-18T02:19:21.168Z,0
2017-10-18T02:20:01.638Z,0
2017-10-18T02:20:42.091Z,0
2017-10-18T02:21:22.534Z,0
2017-10-18T02:22:02.967Z,0
2017-10-18T02:22:43.413Z,0
2017-10-18T02:23:23.834Z,0
2017-10-18T02:24:04.207Z,0
2017-10-18T02:24:44.643Z,0
2017-10-18T02:25:25.039Z,0
2017-10-18T02:26:05.403Z,0
2017-10-18T02:26:45.844Z,0
2017-10-18T02:29:13.769Z,0
2017-10-18T02:29:54.107Z,0
2017-10-18T02:30:34.510Z,0
2017-10-18T02:31:14.948Z,0
2017-10-18T02:31:55.352Z,0
2017-10-18T02:32:35.757Z,0
2017-10-18T02:33:16.201Z,0
2017-10-18T02:33:56.618Z,0
2017-10-18T02:34:37.031Z,0
2017-10-18T02:35:17.436Z,0
2017-10-18T02:35:57.849Z,0
2017-10-18T02:36:38.262Z,0
2017-10-18T02:37:18.638Z,0
2017-10-18T02:37:59.079Z,0
2017-10-18T02:38:39.490Z,0
2017-10-18T02:39:19.880Z,0
2017-10-18T02:40:00.274Z,0
2017-10-18T02:40:40.674Z,0
2017-10-18T02:41:21.079Z,0
2017-10-18T02:42:01.540Z,0
2017-10-18T02:42:41.917Z,0
2017-10-18T02:43:22.371Z,0
2017-10-18T02:44:02.803Z,0
2017-10-18T02:44:43.168Z,0
2017-10-18T02:45:23.612Z,0
2017-10-18T02:46:04.020Z,0
2017-10-18T02:46:44.445Z,0
2017-10-18T02:47:24.815Z,0
2017-10-18T02:48:05.209Z,0
2017-10-18T02:48:45.630Z,0
2017-10-18T02:49:26.085Z,0
2017-10-18T02:50:06.442Z,0
2017-10-18T02:50:46.844Z,0
2017-10-18T02:51:27.238Z,0
2017-10-18T02:52:07.674Z,0
2017-10-18T02:52:48.115Z,0
2017-10-18T02:53:28.573Z,0
2017-10-18T02:54:09.070Z,0
2017-10-18T02:54:49.431Z,0
2017-10-18T02:55:29.853Z,0
2017-10-18T02:56:10.234Z,0
2017-10-18T02:56:50.609Z,0
2017-10-18T02:57:31.014Z,0
2017-10-18T02:58:11.464Z,0
2017-10-18T02:58:51.865Z,0
2017-10-18T02:59:32.298Z,0
2017-10-18T03:00:12.687Z,0
2017-10-18T03:00:53.038Z,0
2017-10-18T03:04:13.173Z,0
2017-10-18T03:04:53.573Z,0
2017-10-18T03:05:33.959Z,0
2017-10-18T03:06:14.415Z,0
2017-10-18T03:06:54.807Z,0
2017-10-18T03:07:35.241Z,0
2017-10-18T03:08:15.688Z,0
2017-10-18T03:08:56.098Z,0
2017-10-18T03:09:36.459Z,0
2017-10-18T03:10:16.900Z,0
2017-10-18T03:10:57.297Z,0
2017-10-18T03:11:37.706Z,0
2017-10-18T03:12:18.127Z,0
2017-10-18T03:12:58.594Z,0
2017-10-18T03:13:39.035Z,0
2017-10-18T03:14:19.426Z,0
2017-10-18T03:14:59.826Z,0
2017-10-18T03:15:40.253Z,0
2017-10-18T03:16:20.638Z,0
2017-10-18T03:17:01.107Z,0
2017-10-18T03:17:41.484Z,0
2017-10-18T03:18:21.921Z,0
2017-10-18T03:19:02.299Z,0
2017-10-18T03:19:42.772Z,0
2017-10-18T03:20:23.176Z,0
2017-10-18T03:21:03.598Z,0
2017-10-18T03:21:44.009Z,0
2017-10-18T03:24:16.855Z,0
2017-10-18T03:24:57.230Z,0
2017-10-18T03:25:37.681Z,0
2017-10-18T03:26:18.088Z,0
2017-10-18T03:26:58.468Z,0
2017-10-18T03:27:38.860Z,0
2017-10-18T03:28:19.268Z,0
2017-10-18T03:30:33.006Z,0
2017-10-18T03:32:46.603Z,0
2017-10-18T03:33:27.031Z,0
2017-10-18T03:34:07.448Z,0
2017-10-18T03:34:47.851Z,0
2017-10-18T03:35:28.238Z,0
2017-10-18T03:36:08.626Z,0
2017-10-18T03:36:49.033Z,0
2017-10-18T03:37:29.463Z,0
2017-10-18T03:38:09.873Z,0
2017-10-18T03:38:50.319Z,0
2017-10-18T03:39:30.734Z,0
2017-10-18T03:40:11.214Z,0
2017-10-18T03:40:51.560Z,0
2017-10-18T03:41:32.035Z,0
2017-10-18T03:42:12.371Z,0
2017-10-18T03:42:52.803Z,0
2017-10-18T03:43:33.267Z,0
2017-10-18T03:44:13.600Z,0
2017-10-18T03:44:54.034Z,0
2017-10-18T03:45:34.378Z,0
2017-10-18T03:46:14.791Z,0
2017-10-18T03:46:55.176Z,0
2017-10-18T03:47:35.632Z,0
2017-10-18T03:48:16.021Z,0
2017-10-18T03:50:49.397Z,0
2017-10-18T03:51:29.570Z,0
2017-10-18T03:52:09.975Z,0
2017-10-18T03:52:50.358Z,0
2017-10-18T03:53:30.853Z,0
2017-10-18T03:54:11.259Z,0
2017-10-18T03:54:51.662Z,0
2017-10-18T03:55:32.084Z,0
2017-10-18T03:56:12.548Z,0
2017-10-18T03:56:52.997Z,0
2017-10-18T03:57:33.461Z,0
2017-10-18T03:58:13.824Z,0
2017-10-18T03:58:54.239Z,0
2017-10-18T03:59:34.667Z,0
2017-10-18T04:00:15.075Z,0
2017-10-18T04:00:55.476Z,0
2017-10-18T04:01:35.898Z,0
2017-10-18T04:02:16.295Z,0
2017-10-18T04:02:56.743Z,0
2017-10-18T04:03:37.203Z,0
2017-10-18T04:04:17.620Z,0
2017-10-18T04:04:58.153Z,0
2017-10-18T04:05:38.533Z,0
2017-10-18T04:06:18.970Z,0
2017-10-18T04:06:59.358Z,0
2017-10-18T04:07:39.800Z,0
2017-10-18T04:08:20.177Z,0
2017-10-18T04:09:00.627Z,0
2017-10-18T04:09:41.019Z,0
2017-10-18T04:10:21.451Z,0
2017-10-18T04:11:01.870Z,0
2017-10-18T04:11:42.310Z,0
2017-10-18T04:12:22.714Z,0
2017-10-18T04:13:03.130Z,0
2017-10-18T04:13:43.567Z,0
2017-10-18T04:14:23.993Z,0
2017-10-18T04:15:04.376Z,0
2017-10-18T04:15:44.780Z,0
2017-10-18T04:16:25.191Z,0
2017-10-18T04:17:05.570Z,0
2017-10-18T04:17:45.964Z,0
2017-10-18T04:18:28.722Z,0
2017-10-18T04:19:08.933Z,0
2017-10-18T04:19:49.361Z,0
2017-10-18T04:20:29.731Z,0
2017-10-18T04:21:10.179Z,0
2017-10-18T04:21:50.618Z,0
2017-10-18T04:22:30.956Z,0
2017-10-18T04:23:11.377Z,0
2017-10-18T04:23:51.790Z,0
2017-10-18T04:24:32.199Z,0
2017-10-18T04:25:12.561Z,0
2017-10-18T04:25:52.960Z,0
2017-10-18T04:26:33.333Z,0
2017-10-18T04:27:13.747Z,0
2017-10-18T04:27:54.124Z,0
2017-10-18T04:28:34.523Z,0
2017-10-18T04:29:14.921Z,0
2017-10-18T04:29:55.298Z,0
2017-10-18T04:30:35.713Z,0
2017-10-18T04:31:16.116Z,0
2017-10-18T04:31:56.644Z,0
2017-10-18T04:32:37.066Z,0
2017-10-18T04:33:17.479Z,0
2017-10-18T04:33:57.864Z,0
2017-10-18T04:34:38.286Z,0
2017-10-18T04:35:18.666Z,0
2017-10-18T04:35:59.092Z,0
2017-10-18T04:36:39.536Z,0
2017-10-18T04:37:19.973Z,0
2017-10-18T04:38:00.355Z,0
2017-10-18T04:38:40.796Z,0
2017-10-18T04:39:21.137Z,0
2017-10-18T04:40:01.552Z,0
2017-10-18T04:40:41.973Z,0
2017-10-18T04:41:22.355Z,0
2017-10-18T04:42:02.742Z,0
2017-10-18T04:42:43.192Z,0
2017-10-18T04:43:23.613Z,0
2017-10-18T04:44:03.985Z,0
2017-10-18T04:44:44.386Z,0
2017-10-18T04:45:24.743Z,0
2017-10-18T04:46:05.204Z,0
2017-10-18T04:46:45.721Z,0
2017-10-18T04:47:26.083Z,0
2017-10-18T04:48:06.580Z,0
2017-10-18T04:48:46.978Z,0
2017-10-18T04:49:27.373Z,0
2017-10-18T04:50:07.760Z,0
2017-10-18T04:50:48.180Z,0
2017-10-18T04:51:28.570Z,0
2017-10-18T04:52:08.962Z,0
2017-10-18T04:52:49.346Z,0
2017-10-18T04:53:29.790Z,0
2017-10-18T04:54:10.164Z,0
2017-10-18T04:54:50.547Z,0
2017-10-18T04:55:30.984Z,0
2017-10-18T04:56:11.344Z,0
2017-10-18T04:56:51.710Z,0
2017-10-18T04:57:32.139Z,0
2017-10-18T04:58:12.537Z,0
2017-10-18T04:58:52.987Z,0
2017-10-18T04:59:33.330Z,0
2017-10-18T05:00:13.774Z,0
2017-10-18T05:00:54.165Z,0
2017-10-18T05:01:34.597Z,0
2017-10-18T05:02:14.977Z,0
2017-10-18T05:02:55.491Z,0
2017-10-18T05:03:35.944Z,0
2017-10-18T05:04:16.367Z,0
2017-10-18T05:04:56.768Z,0
2017-10-18T05:05:37.188Z,0
2017-10-18T05:06:17.744Z,0
2017-10-18T05:06:58.200Z,0
2017-10-18T05:07:38.693Z,0
2017-10-18T05:08:19.003Z,0
2017-10-18T05:08:59.607Z,0
2017-10-18T05:09:39.987Z,0
2017-10-18T05:10:20.591Z,0
2017-10-18T05:11:01.951Z,0
2017-10-18T05:11:42.338Z,0
2017-10-18T05:12:22.740Z,0
2017-10-18T05:13:03.161Z,0
2017-10-18T05:13:43.656Z,0
2017-10-18T05:14:24.148Z,0
2017-10-18T05:15:04.489Z,0
2017-10-18T05:15:44.925Z,0
2017-10-18T05:16:25.347Z,0
2017-10-18T05:17:05.716Z,0
2017-10-18T05:17:46.148Z,0
2017-10-18T05:18:26.525Z,0
2017-10-18T05:19:06.930Z,0
2017-10-18T05:19:47.336Z,0
2017-10-18T05:20:27.736Z,0
2017-10-18T05:21:08.197Z,0
2017-10-18T05:21:48.644Z,0
2017-10-18T05:22:29.206Z,0
2017-10-18T05:23:09.574Z,0
2017-10-18T05:23:50.006Z,0
2017-10-18T05:24:30.506Z,0
2017-10-18T05:25:10.966Z,0
2017-10-18T05:25:51.413Z,0
2017-10-18T05:26:31.817Z,0
2017-10-18T05:27:12.279Z,0
2017-10-18T05:27:52.669Z,0
2017-10-18T05:28:33.063Z,0
2017-10-18T05:29:13.514Z,0
2017-10-18T05:29:53.928Z,0
2017-10-18T05:30:34.297Z,0
2017-10-18T05:31:25.959Z,0
2017-10-18T05:32:06.553Z,0
2017-10-18T05:32:49.457Z,0
2017-10-18T05:33:30.229Z,0
2017-10-18T05:34:10.994Z,0
2017-10-18T05:34:51.473Z,0
2017-10-18T05:35:32.289Z,0
2017-10-18T05:36:12.725Z,0
2017-10-18T05:36:53.197Z,0
2017-10-18T05:37:33.638Z,0
2017-10-18T05:38:14.107Z,0
2017-10-18T05:38:54.533Z,0
2017-10-18T05:39:35.516Z,0
2017-10-18T05:40:16.907Z,0
2017-10-18T05:40:57.036Z,0
2017-10-18T05:41:37.644Z,0
2017-10-18T05:42:18.111Z,0
2017-10-18T05:42:58.552Z,0
2017-10-18T05:43:38.982Z,0
2017-10-18T05:44:20.037Z,0
2017-10-18T05:45:00.478Z,0
2017-10-18T05:45:41.076Z,0
2017-10-18T05:46:21.815Z,0
2017-10-18T05:47:02.346Z,0
2017-10-18T05:47:47.447Z,0
2017-10-18T05:48:27.118Z,0
2017-10-18T05:49:07.499Z,0
2017-10-18T05:49:48.398Z,0
2017-10-18T05:50:28.797Z,0
2017-10-18T05:51:09.197Z,0
2017-10-18T05:51:49.592Z,0
2017-10-18T05:52:29.993Z,0
2017-10-18T05:53:10.390Z,0
2017-10-18T05:53:52.134Z,0
2017-10-18T05:54:33.101Z,0
2017-10-18T05:55:13.324Z,0
2017-10-18T05:55:54.354Z,0
2017-10-18T05:56:34.236Z,0
2017-10-18T05:57:14.672Z,0
2017-10-18T05:57:55.157Z,0
2017-10-18T05:58:35.628Z,0
2017-10-18T05:59:16.019Z,0
2017-10-18T06:01:35.696Z,0
2017-10-18T06:02:16.093Z,0
2017-10-18T06:05:12.007Z,0
2017-10-18T06:06:10.175Z,5
2017-10-18T06:07:04.174Z,5
2017-10-18T06:08:01.711Z,5
2017-10-18T06:08:57.225Z,5
2017-10-18T06:09:53.714Z,5
2017-10-18T06:10:48.618Z,5
2017-10-18T06:11:43.199Z,5
2017-10-18T06:12:38.431Z,5
2017-10-18T06:13:33.534Z,10
2017-10-18T06:14:26.595Z,10
2017-10-18T06:15:22.062Z,10
2017-10-18T06:16:17.429Z,15
2017-10-18T06:17:22.600Z,15
2017-10-18T06:18:30.542Z,15
2017-10-18T06:19:23.768Z,20
2017-10-18T06:20:19.951Z,20
2017-10-18T06:21:12.509Z,25
2017-10-18T06:22:07.006Z,35
2017-10-18T06:26:54.229Z,50
2017-10-18T06:27:50.296Z,95
2017-10-18T06:28:45.479Z,115
2017-10-18T06:29:37.773Z,120
2017-10-18T06:30:33.015Z,140
2017-10-18T06:31:28.836Z,145
2017-10-18T06:32:21.855Z,155
2017-10-18T06:33:16.817Z,155
2017-10-18T06:35:52.742Z,180
2017-10-18T06:36:33.126Z,140
2017-10-18T06:37:13.579Z,145
2017-10-18T06:37:56.026Z,130
2017-10-18T06:38:35.922Z,90
2017-10-18T06:39:16.528Z,60
2017-10-18T06:39:57.174Z,55
2017-10-18T06:40:37.720Z,50
2017-10-18T06:41:18.179Z,50
2017-10-18T06:41:58.660Z,40
2017-10-18T06:42:39.092Z,25
2017-10-18T06:43:19.439Z,30
2017-10-18T06:43:59.873Z,25
2017-10-18T06:44:40.369Z,25
2017-10-18T06:45:20.835Z,30
2017-10-18T06:46:01.218Z,30
2017-10-18T06:46:41.700Z,30
2017-10-18T06:49:09.546Z,55
2017-10-18T06:49:49.930Z,65
2017-10-18T06:50:30.346Z,70
2017-10-18T06:51:10.861Z,70
2017-10-18T06:51:51.399Z,70
2017-10-18T06:52:31.861Z,70
2017-10-18T06:53:12.348Z,70
2017-10-18T06:53:52.762Z,70
2017-10-18T06:54:33.241Z,75
2017-10-18T06:55:13.709Z,75
2017-10-18T06:55:54.121Z,75
2017-10-18T06:56:34.614Z,80
2017-10-18T06:57:15.006Z,80
2017-10-18T06:57:55.610Z,80
2017-10-18T06:58:36.007Z,75
2017-10-18T06:59:16.391Z,80
2017-10-18T06:59:56.801Z,80
2017-10-18T07:00:37.258Z,80
2017-10-18T07:01:17.756Z,80
2017-10-18T07:01:58.156Z,75
2017-10-18T07:02:38.640Z,75
2017-10-18T07:03:19.090Z,80
2017-10-18T07:03:59.487Z,75
2017-10-18T07:04:39.947Z,75
2017-10-18T07:05:20.327Z,75
2017-10-18T07:06:00.705Z,70
2017-10-18T07:06:41.118Z,75
2017-10-18T07:07:21.551Z,70
2017-10-18T07:08:02.002Z,60
2017-10-18T07:08:42.438Z,50
2017-10-18T07:09:23.044Z,45
2017-10-18T07:10:03.487Z,45
2017-10-18T07:10:43.966Z,45
2017-10-18T07:11:24.429Z,60
2017-10-18T07:12:05.139Z,55
2017-10-18T07:12:45.513Z,55
2017-10-18T07:13:25.996Z,50
2017-10-18T07:14:06.468Z,40
2017-10-18T07:14:46.897Z,35
2017-10-18T07:15:27.337Z,35
2017-10-18T07:16:07.789Z,35
2017-10-18T07:16:48.277Z,35
2017-10-18T07:17:28.676Z,30
2017-10-18T07:18:09.119Z,35
2017-10-18T07:18:49.510Z,35
2017-10-18T07:19:29.953Z,30
2017-10-18T07:20:10.368Z,25
2017-10-18T07:20:50.951Z,25
2017-10-18T07:21:31.360Z,25
2017-10-18T07:22:11.815Z,25
2017-10-18T07:24:39.848Z,25
2017-10-18T07:25:20.242Z,25
2017-10-18T07:26:00.742Z,30
2017-10-18T07:26:41.175Z,30
2017-10-18T07:27:21.557Z,30
2017-10-18T07:28:01.989Z,35
2017-10-18T07:28:42.458Z,40
2017-10-18T07:29:22.827Z,35
2017-10-18T07:30:03.284Z,35
2017-10-18T07:30:43.729Z,40
2017-10-18T07:31:24.162Z,40
2017-10-18T07:32:04.596Z,35
2017-10-18T07:32:45.076Z,30
2017-10-18T07:33:25.529Z,30
2017-10-18T07:34:06.794Z,35
2017-10-18T07:34:46.486Z,40
2017-10-18T07:35:26.992Z,40
2017-10-18T07:36:07.385Z,40
2017-10-18T07:36:47.788Z,40
2017-10-18T07:37:28.291Z,45
2017-10-18T07:38:08.758Z,45
2017-10-18T07:38:49.171Z,50
2017-10-18T07:39:29.661Z,50
2017-10-18T07:40:11.992Z,50
2017-10-18T07:40:51.770Z,45
2017-10-18T07:41:32.380Z,45
2017-10-18T07:42:12.807Z,45
2017-10-18T07:42:53.329Z,45
2017-10-18T07:45:48.107Z,45
2017-10-18T07:46:42.256Z,50
2017-10-18T07:47:40.745Z,50
2017-10-18T07:48:37.205Z,50
2017-10-18T07:53:52.736Z,60
2017-10-18T07:54:33.353Z,65
2017-10-18T07:55:13.753Z,65
2017-10-18T07:55:54.207Z,65
2017-10-18T07:56:34.740Z,65
2017-10-18T07:57:15.324Z,65
2017-10-18T07:57:55.777Z,65
2017-10-18T07:58:36.248Z,65
2017-10-18T07:59:16.796Z,65
2017-10-18T07:59:57.250Z,65
2017-10-18T08:00:37.785Z,65
2017-10-18T08:01:18.242Z,65
2017-10-18T08:01:58.633Z,60
2017-10-18T08:02:39.137Z,60
2017-10-18T08:03:19.874Z,60
2017-10-18T08:04:00.512Z,60
2017-10-18T08:04:41.306Z,60
2017-10-18T08:05:22.265Z,60
2017-10-18T08:06:03.827Z,60
2017-10-18T08:06:44.148Z,60
2017-10-18T08:07:24.936Z,60
2017-10-18T08:08:06.203Z,55
2017-10-18T08:08:46.957Z,50
2017-10-18T08:09:28.854Z,50
2017-10-18T08:10:08.640Z,60
2017-10-18T08:10:49.103Z,60
2017-10-18T08:11:30.488Z,60
2017-10-18T08:12:11.340Z,65
2017-10-18T08:12:52.321Z,65
2017-10-18T08:13:32.764Z,65
2017-10-18T08:14:13.412Z,65
2017-10-18T08:14:54.071Z,65
2017-10-18T08:15:35.321Z,65
2017-10-18T08:16:15.516Z,65
2017-10-18T08:16:56.187Z,65
2017-10-18T08:17:36.887Z,65
2017-10-18T08:18:17.802Z,65
2017-10-18T08:18:58.457Z,65
2017-10-18T08:19:39.369Z,65
2017-10-18T08:20:20.857Z,65
2017-10-18T08:21:00.868Z,65
2017-10-18T08:21:41.560Z,65
2017-10-18T08:22:22.058Z,65
2017-10-18T08:23:02.705Z,65
2017-10-18T08:23:43.367Z,50
2017-10-18T08:24:23.867Z,60
2017-10-18T08:25:04.371Z,65
2017-10-18T08:25:44.912Z,65
2017-10-18T08:26:25.320Z,65
2017-10-18T08:27:05.711Z,65
2017-10-18T08:27:46.255Z,65
2017-10-18T08:28:26.688Z,65
2017-10-18T08:29:07.236Z,65
2017-10-18T08:29:47.921Z,65
2017-10-18T08:30:28.492Z,65
2017-10-18T08:31:08.901Z,65
2017-10-18T08:31:49.504Z,65
2017-10-18T08:32:29.882Z,65
2017-10-18T08:33:10.430Z,65
2017-10-18T08:33:51.848Z,65
2017-10-18T08:34:31.898Z,65
2017-10-18T08:35:13.819Z,65
2017-10-18T08:35:53.621Z,65
2017-10-18T08:36:34.094Z,65
2017-10-18T08:37:14.579Z,65
2017-10-18T08:37:55.021Z,65
2017-10-18T08:38:35.455Z,65
2017-10-18T08:39:18.478Z,65
2017-10-18T08:39:58.969Z,65
2017-10-18T08:40:39.419Z,65
2017-10-18T08:41:19.862Z,65
2017-10-18T08:42:00.254Z,65
2017-10-18T08:42:40.737Z,65
2017-10-18T08:43:21.218Z,65
2017-10-18T08:44:01.704Z,65
2017-10-18T08:44:42.205Z,65
2017-10-18T08:45:22.660Z,65
2017-10-18T08:46:03.988Z,65
2017-10-18T08:46:44.477Z,65
2017-10-18T08:47:25.579Z,65
2017-10-18T08:48:06.050Z,65
2017-10-18T08:48:46.586Z,65
2017-10-18T08:49:26.991Z,65
2017-10-18T08:50:07.502Z,65
2017-10-18T08:50:47.988Z,65
2017-10-18T08:51:28.408Z,65
2017-10-18T08:52:08.843Z,65
2017-10-18T08:52:49.540Z,65
2017-10-18T08:53:31.046Z,65
2017-10-18T08:54:11.514Z,65
2017-10-18T08:54:52.030Z,65
2017-10-18T08:55:32.534Z,65
2017-10-18T08:56:13.030Z,65
2017-10-18T08:56:53.428Z,65
2017-10-18T08:57:33.977Z,65
2017-10-18T08:59:55.851Z,65
2017-10-18T09:00:36.643Z,65
2017-10-18T09:01:17.078Z,65
2017-10-18T09:01:57.529Z,65
2017-10-18T09:02:38.007Z,65
2017-10-18T09:03:19.025Z,65
2017-10-18T09:03:59.107Z,65
2017-10-18T09:04:39.573Z,65
2017-10-18T09:05:20.191Z,65
2017-10-18T09:06:00.617Z,65
2017-10-18T09:06:41.298Z,65
2017-10-18T09:07:21.721Z,65
2017-10-18T09:08:02.374Z,65
2017-10-18T09:08:43.115Z,65
2017-10-18T09:11:41.053Z,65
2017-10-18T09:12:21.382Z,65
2017-10-18T09:13:01.927Z,65
2017-10-18T09:13:42.456Z,65
2017-10-18T09:14:22.913Z,65
2017-10-18T09:15:03.421Z,65
2017-10-18T09:15:43.878Z,65
2017-10-18T09:16:24.267Z,65
2017-10-18T09:17:04.781Z,65
2017-10-18T09:17:45.219Z,65
2017-10-18T09:18:25.750Z,65
2017-10-18T09:19:06.134Z,65
2017-10-18T09:19:46.569Z,65
2017-10-18T09:20:27.033Z,65
2017-10-18T09:21:07.530Z,65
2017-10-18T09:21:47.992Z,65
2017-10-18T09:22:28.457Z,65
2017-10-18T09:23:08.956Z,65
2017-10-18T09:23:49.445Z,65
2017-10-18T09:24:29.854Z,65
2017-10-18T09:25:10.966Z,65
2017-10-18T09:25:51.663Z,65
2017-10-18T09:26:33.314Z,65
2017-10-18T09:27:13.225Z,55
2017-10-18T09:29:31.761Z,65
2017-10-18T09:30:12.389Z,65
2017-10-18T09:30:52.821Z,65
2017-10-18T09:31:33.296Z,65
2017-10-18T09:32:13.813Z,60
2017-10-18T09:32:54.270Z,60
2017-10-18T09:33:34.909Z,55
2017-10-18T09:34:15.358Z,55
2017-10-18T09:34:55.809Z,55
2017-10-18T09:35:36.244Z,60
2017-10-18T09:36:16.797Z,55
2017-10-18T09:39:05.325Z,60
2017-10-18T09:39:45.396Z,60
2017-10-18T09:40:26.033Z,60
2017-10-18T09:41:06.520Z,60
2017-10-18T09:41:47.436Z,60
2017-10-18T09:42:27.787Z,60
2017-10-18T09:43:08.326Z,60
2017-10-18T09:43:48.749Z,60
2017-10-18T09:44:29.469Z,60
2017-10-18T09:45:10.229Z,60
2017-10-18T09:45:50.663Z,60
2017-10-18T09:46:31.136Z,60
2017-10-18T09:47:11.714Z,65
2017-10-18T09:47:52.122Z,65
2017-10-18T09:48:32.724Z,65
2017-10-18T09:49:13.177Z,65
2017-10-18T09:49:53.660Z,65
2017-10-18T09:50:34.272Z,65
2017-10-18T09:51:15.057Z,65
2017-10-18T09:53:56.416Z,65
2017-10-18T09:54:34.924Z,65
2017-10-18T09:55:15.362Z,65
2017-10-18T09:55:55.777Z,65
2017-10-18T09:56:36.291Z,65
2017-10-18T09:57:16.700Z,65
2017-10-18T09:57:57.152Z,65
2017-10-18T09:58:37.680Z,65
2017-10-18T09:59:18.266Z,65
2017-10-18T09:59:58.673Z,65
2017-10-18T10:00:39.168Z,65
2017-10-18T10:01:19.776Z,65
2017-10-18T10:02:00.056Z,65
2017-10-18T10:02:40.504Z,65
2017-10-18T10:03:21.076Z,65
2017-10-18T10:04:01.558Z,65
2017-10-18T10:04:42.014Z,65
2017-10-18T10:05:22.419Z,65
2017-10-18T10:06:03.863Z,65
2017-10-18T10:06:43.984Z,65
2017-10-18T10:07:24.500Z,65
2017-10-18T10:08:05.012Z,65
2017-10-18T10:08:45.570Z,65
2017-10-18T10:09:25.955Z,65
2017-10-18T10:10:06.506Z,65
2017-10-18T10:10:47.419Z,65
2017-10-18T10:11:28.266Z,65
2017-10-18T10:12:09.044Z,65
2017-10-18T10:12:50.328Z,65
2017-10-18T10:13:30.208Z,65
2017-10-18T10:14:10.618Z,65
2017-10-18T10:14:51.033Z,65
2017-10-18T10:15:31.598Z,65
2017-10-18T10:16:12.077Z,65
2017-10-18T10:16:52.727Z,65
2017-10-18T10:17:34.608Z,65
2017-10-18T10:18:15.488Z,65
2017-10-18T10:18:56.489Z,65
2017-10-18T10:19:39.830Z,65
2017-10-18T10:20:20.646Z,65
2017-10-18T10:21:01.049Z,65
2017-10-18T10:21:41.995Z,65
2017-10-18T10:22:23.356Z,65
2017-10-18T10:23:06.630Z,60
2017-10-18T10:23:49.369Z,60
2017-10-18T10:24:29.640Z,60
2017-10-18T10:25:10.063Z,60
2017-10-18T10:25:50.522Z,60
2017-10-18T10:26:30.954Z,60
2017-10-18T10:27:11.414Z,60
2017-10-18T10:27:51.969Z,60
2017-10-18T10:28:32.403Z,60
2017-10-18T10:29:12.882Z,60
2017-10-18T10:29:54.106Z,60
2017-10-18T10:30:34.601Z,60
2017-10-18T10:31:15.002Z,60
2017-10-18T10:31:55.502Z,60
2017-10-18T10:32:35.997Z,60
2017-10-18T10:33:16.432Z,60
2017-10-18T10:33:56.895Z,60
2017-10-18T10:34:37.465Z,60
2017-10-18T10:35:18.359Z,60
2017-10-18T10:36:00.524Z,60
2017-10-18T10:36:44.006Z,60
2017-10-18T10:37:27.043Z,60
2017-10-18T10:38:07.700Z,60
2017-10-18T10:38:48.232Z,60
2017-10-18T10:39:28.672Z,60
2017-10-18T10:40:09.230Z,60
2017-10-18T10:40:49.666Z,60
2017-10-18T10:41:30.063Z,60
2017-10-18T10:42:10.593Z,60
2017-10-18T10:42:51.048Z,60
2017-10-18T10:43:31.468Z,60
2017-10-18T10:44:12.118Z,60
2017-10-18T10:44:52.579Z,60
2017-10-18T10:45:33.102Z,60
2017-10-18T10:46:13.664Z,60
2017-10-18T10:46:54.047Z,60
2017-10-18T10:47:34.501Z,60
2017-10-18T10:48:15.043Z,60
2017-10-18T10:48:55.399Z,60
2017-10-18T10:49:35.955Z,60
2017-10-18T10:50:16.293Z,60
2017-10-18T10:50:56.730Z,55
2017-10-18T10:51:37.570Z,55
2017-10-18T10:52:17.882Z,55
2017-10-18T10:52:58.655Z,60
2017-10-18T10:53:39.327Z,60